createdAt,value
2023-04-15T00:04:40.434Z,99806.25
2023-04-15T00:09:42.602Z,99808.33
2023-04-15T00:14:44.576Z,99812.85
2023-04-15T00:19:46.321Z,99811.80
2023-04-15T00:24:48.549Z,99811.04
2023-04-15T00:29:50.721Z,99802.86
2023-04-15T00:34:52.402Z,99799.52
2023-04-15T00:39:54.021Z,99796.63
2023-04-15T00:44:56.867Z,99797.33
2023-04-15T00:49:58.842Z,99805.61
2023-04-15T00:55:00.823Z,99806.94
2023-04-15T01:00:05.367Z,99806.01
2023-04-15T01:05:08.163Z,99802.39
2023-04-15T01:10:10.462Z,99803.59
2023-04-15T01:15:12.630Z,99805.06
2023-04-15T01:20:15.844Z,99802.19
2023-04-15T01:25:19.564Z,99801.31
2023-04-15T01:30:21.435Z,99794.54
2023-04-15T01:35:23.628Z,99795.98
2023-04-15T01:40:25.399Z,99793.37
2023-04-15T01:45:27.682Z,99794.50
2023-04-15T01:50:29.457Z,99796.52
2023-04-15T01:55:31.552Z,99791.21
2023-04-15T02:00:33.411Z,99789.54
2023-04-15T02:05:36.220Z,99794.07
2023-04-15T02:10:38.507Z,99794.98
2023-04-15T02:15:40.792Z,99798.22
2023-04-15T02:20:46.773Z,99793.98
2023-04-15T02:25:53.599Z,99794.83
2023-04-15T02:30:57.285Z,99792.05
2023-04-15T02:35:59.052Z,99795.60
2023-04-15T02:41:01.229Z,99791.74
2023-04-15T02:46:03.701Z,99793.92
2023-04-15T02:51:16.699Z,99791.02
2023-04-15T02:56:19.386Z,99796.90
2023-04-15T03:01:21.665Z,99794.56
2023-04-15T03:06:24.336Z,99793.94
2023-04-15T03:11:29.079Z,99791.69
2023-04-15T03:16:31.156Z,99803.38
2023-04-15T03:21:32.933Z,99811.31
2023-04-15T03:26:35.428Z,99806.83
2023-04-15T03:31:37.236Z,99805.56
2023-04-15T03:36:39.082Z,99806.63
2023-04-15T03:41:40.853Z,99806.66
2023-04-15T03:46:42.787Z,99801.30
2023-04-15T03:51:45.651Z,99807.13
2023-04-15T03:56:47.511Z,99806.40
2023-04-15T04:01:49.345Z,99807.92
2023-04-15T04:06:51.167Z,99809.88
2023-04-15T04:11:52.938Z,99805.69
2023-04-15T04:16:55.675Z,99808.41
2023-04-15T04:21:57.716Z,99803.02
2023-04-15T04:27:00.510Z,99804.30
2023-04-15T04:32:02.433Z,99806.04
2023-04-15T04:37:04.361Z,99812.01
2023-04-15T04:42:06.033Z,99814.15
2023-04-15T04:47:08.013Z,99813.92
2023-04-15T04:52:10.301Z,99816.73
2023-04-15T04:57:13.200Z,99819.24
2023-04-15T05:02:15.158Z,99819.94
2023-04-15T05:07:17.056Z,99827.35
2023-04-15T05:12:19.040Z,99830.23
2023-04-15T05:17:21.057Z,99828.19
2023-04-15T05:22:22.892Z,99832.75
2023-04-15T05:27:25.183Z,99833.08
2023-04-15T05:32:27.085Z,99831.98
2023-04-15T05:37:28.831Z,99832.27
2023-04-15T05:42:31.014Z,99833.91
2023-04-15T05:47:32.939Z,99837.23
2023-04-15T05:52:35.078Z,99838.19
2023-04-15T05:57:37.364Z,99848.97
2023-04-15T06:02:39.295Z,99847.77
2023-04-15T06:07:43.371Z,99846.20
2023-04-15T06:12:45.557Z,99848.80
2023-04-15T06:17:47.546Z,99849.77
2023-04-15T06:22:49.822Z,99851.69
2023-04-15T06:27:52.520Z,99855.77
2023-04-15T06:32:55.443Z,99863.38
2023-04-15T06:37:57.228Z,99861.39
2023-04-15T06:42:59.069Z,99862.90
2023-04-15T06:48:00.862Z,99863.60
2023-04-15T06:53:03.080Z,99864.31
2023-04-15T06:58:05.106Z,99869.39
2023-04-15T07:03:09.785Z,99870.66
2023-04-15T07:08:11.832Z,99871.51
2023-04-15T07:13:13.706Z,99876.92
2023-04-15T07:18:15.586Z,99879.61
2023-04-15T07:23:17.973Z,99875.89
2023-04-15T07:28:20.155Z,99881.76
2023-04-15T07:33:22.039Z,99884.82
2023-04-15T07:38:24.327Z,99889.35
2023-04-15T07:43:26.718Z,99886.77
2023-04-15T07:48:28.603Z,99892.98
2023-04-15T07:53:30.977Z,99895.80
2023-04-15T07:58:32.864Z,99892.66
2023-04-15T08:03:35.098Z,99891.85
2023-04-15T08:08:37.121Z,99895.17
2023-04-15T08:13:38.892Z,99896.73
2023-04-15T08:18:40.873Z,99887.77
2023-04-15T08:23:43.569Z,99896.00
2023-04-15T08:28:46.995Z,99905.73
2023-04-15T08:33:48.752Z,99904.84
2023-04-15T08:38:50.833Z,99908.90
2023-04-15T08:43:57.632Z,99905.97
2023-04-15T08:49:03.637Z,99907.86
2023-04-15T08:54:06.828Z,99906.81
2023-04-15T08:59:11.044Z,99916.02
2023-04-15T09:04:14.180Z,99909.23
2023-04-15T09:09:16.661Z,99910.45
2023-04-15T09:14:18.436Z,99914.14
2023-04-15T09:19:22.917Z,99914.91
2023-04-15T09:24:34.052Z,99912.90
2023-04-15T09:29:37.337Z,99912.33
2023-04-15T09:34:39.561Z,99914.40
2023-04-15T09:39:50.238Z,99919.81
2023-04-15T09:44:52.674Z,99925.86
2023-04-15T09:50:00.307Z,99928.05
2023-04-15T09:55:03.738Z,99928.27
2023-04-15T10:00:11.766Z,99926.38
2023-04-15T10:05:15.176Z,99926.69
2023-04-15T10:10:17.873Z,99934.41
2023-04-15T10:15:22.121Z,99937.42
2023-04-15T10:20:24.763Z,99944.73
2023-04-15T10:25:29.381Z,99940.48
2023-04-15T10:30:32.556Z,99938.06
2023-04-15T10:35:35.710Z,99940.88
2023-04-15T10:40:39.017Z,99934.46
2023-04-15T10:45:44.599Z,99942.66
2023-04-15T10:50:57.167Z,99940.84
2023-04-15T10:55:59.543Z,99942.95
2023-04-15T11:01:02.437Z,99948.09
2023-04-15T11:06:06.070Z,99947.57
2023-04-15T11:11:09.166Z,99945.23
2023-04-15T11:16:12.334Z,99948.65
2023-04-15T11:21:14.248Z,99948.52
2023-04-15T11:26:16.362Z,99948.88
2023-04-15T11:31:19.921Z,99955.52
2023-04-15T11:36:29.721Z,99951.09
2023-04-15T11:41:31.695Z,99954.33
2023-04-15T11:46:33.467Z,99955.48
2023-04-15T11:51:35.552Z,99966.67
2023-04-15T11:56:37.845Z,99967.91
2023-04-15T12:01:41.966Z,99968.38
2023-04-15T12:06:45.377Z,99968.41
2023-04-15T12:11:53.312Z,99970.67
2023-04-15T12:16:59.615Z,99971.39
2023-04-15T12:22:08.616Z,99975.21
2023-04-15T12:27:15.810Z,99983.11
2023-04-15T12:32:20.599Z,99988.29
2023-04-15T12:37:22.661Z,99986.54
2023-04-15T12:42:24.837Z,99993.80
2023-04-15T12:47:30.072Z,99990.55
2023-04-15T12:52:39.349Z,99992.84
2023-04-15T12:57:41.327Z,99996.04
2023-04-15T13:02:44.617Z,99997.52
2023-04-15T13:07:46.709Z,99993.69
2023-04-15T13:12:52.614Z,100000.48
2023-04-15T13:17:54.394Z,100001.25
2023-04-15T13:22:56.646Z,100004.77
2023-04-15T13:28:01.152Z,100006.92
2023-04-15T13:33:04.438Z,100007.62
2023-04-15T13:38:06.788Z,100014.40
2023-04-15T13:43:09.022Z,100015.69
2023-04-15T13:48:11.057Z,100016.70
2023-04-15T13:53:13.741Z,100014.94
2023-04-15T13:58:16.135Z,100015.35
2023-04-15T14:03:18.112Z,100021.21
2023-04-15T14:08:20.190Z,100025.85
2023-04-15T14:13:34.871Z,100025.88
2023-04-15T14:18:40.334Z,100029.96
2023-04-15T14:23:42.818Z,100038.56
2023-04-15T14:28:44.992Z,100038.39
2023-04-15T14:33:47.389Z,100038.10
2023-04-15T14:38:49.266Z,100042.27
2023-04-15T14:43:51.161Z,100049.04
2023-04-15T14:48:53.329Z,100054.50
2023-04-15T14:53:55.409Z,100059.80
2023-04-15T14:58:57.291Z,100067.21
2023-04-15T15:03:59.402Z,100069.27
2023-04-15T15:09:01.850Z,100072.04
2023-04-15T15:14:03.936Z,100077.06
2023-04-15T15:19:06.183Z,100083.05
2023-04-15T15:24:08.925Z,100083.86
2023-04-15T15:29:11.006Z,100087.75
2023-04-15T15:34:12.880Z,100092.73
2023-04-15T15:39:16.515Z,100095.79
2023-04-15T15:44:18.373Z,100107.68
2023-04-15T15:49:20.464Z,100112.81
2023-04-15T15:54:22.754Z,100116.58
2023-04-15T15:59:25.336Z,100117.67
2023-04-15T16:04:27.291Z,100120.73
2023-04-15T16:09:29.502Z,100125.91
2023-04-15T16:14:31.580Z,100135.23
2023-04-15T16:19:33.456Z,100137.55
2023-04-15T16:24:35.492Z,100140.64
2023-04-15T16:29:37.823Z,100149.48
2023-04-15T16:34:41.031Z,100157.02
2023-04-15T16:39:42.920Z,100161.83
2023-04-15T16:44:44.683Z,100167.45
2023-04-15T16:49:46.458Z,100174.41
2023-04-15T16:54:48.333Z,100181.49
2023-04-15T16:59:50.619Z,100188.19
2023-04-15T17:04:52.503Z,100194.27
2023-04-15T17:09:54.885Z,100198.42
2023-04-15T17:14:57.389Z,100206.36
2023-04-15T17:19:59.660Z,100208.13
2023-04-15T17:25:03.540Z,100212.52
2023-04-15T17:30:09.033Z,100216.34
2023-04-15T17:35:11.438Z,100222.79
2023-04-15T17:40:14.437Z,100231.39
2023-04-15T17:45:16.729Z,100233.80
2023-04-15T17:50:19.227Z,100242.44
2023-04-15T17:55:24.177Z,100253.02
2023-04-15T18:00:26.459Z,100257.75
2023-04-15T18:05:29.468Z,100264.16
2023-04-15T18:10:33.424Z,100271.89
2023-04-15T18:15:35.562Z,100279.91
2023-04-15T18:20:37.446Z,100282.18
2023-04-15T18:25:43.211Z,100289.08
2023-04-15T18:30:47.137Z,100292.58
2023-04-15T18:35:50.654Z,100298.18
2023-04-15T18:40:53.037Z,100303.48
2023-04-15T18:45:55.702Z,100306.73
2023-04-15T18:50:58.438Z,100315.09
2023-04-15T18:56:03.312Z,100319.17
2023-04-15T19:01:06.294Z,100314.59
2023-04-15T19:06:08.978Z,100322.39
2023-04-15T19:11:11.274Z,100322.40
2023-04-15T19:16:13.935Z,100326.57
2023-04-15T19:21:16.866Z,100330.88
2023-04-15T19:26:19.353Z,100331.41
2023-04-15T19:31:21.147Z,100329.43
2023-04-15T19:36:23.164Z,100329.13
2023-04-15T19:41:25.399Z,100330.42
2023-04-15T19:46:27.562Z,100335.13
2023-04-15T19:51:29.983Z,100336.05
2023-04-15T19:56:34.269Z,100333.02
2023-04-15T20:01:36.709Z,100325.58
2023-04-15T20:06:38.870Z,100329.17
2023-04-15T20:12:45.885Z,100330.21
2023-04-15T20:17:05.559Z,100328.64
2023-04-15T20:22:09.181Z,100329.83
2023-04-15T20:27:11.367Z,100325.98
2023-04-15T20:32:13.454Z,100327.93
2023-04-15T20:37:15.631Z,100326.20
2023-04-15T20:42:19.039Z,100325.46
2023-04-15T20:47:21.334Z,100322.98
2023-04-15T20:52:24.036Z,100325.50
2023-04-15T20:57:26.211Z,100326.96
2023-04-15T21:02:28.564Z,100330.39
2023-04-15T21:07:31.299Z,100334.82
2023-04-15T21:12:33.892Z,100336.15
2023-04-15T21:17:36.028Z,100336.82
2023-04-15T21:22:37.857Z,100338.16
2023-04-15T21:27:40.033Z,100339.23
2023-04-15T21:32:41.850Z,100345.96
2023-04-15T21:37:43.990Z,100349.96
2023-04-15T21:42:47.200Z,100355.17
2023-04-15T21:48:04.455Z,100363.80
2023-04-15T21:53:10.722Z,100360.58
2023-04-15T21:58:12.487Z,100365.90
2023-04-15T22:03:16.243Z,100376.90
2023-04-15T22:13:46.288Z,100391.91
2023-04-15T22:18:48.052Z,100393.59
2023-04-15T22:23:53.314Z,100396.68
2023-04-15T22:29:15.362Z,100393.77
2023-04-15T22:34:23.397Z,100398.24
2023-04-15T22:39:25.259Z,100401.52
2023-04-15T22:44:27.137Z,100404.13
2023-04-15T22:49:29.009Z,100403.50
2023-04-15T22:54:30.777Z,100407.84
2023-04-15T22:59:32.617Z,100404.42
2023-04-15T23:04:34.934Z,100408.16
2023-04-15T23:09:38.980Z,100408.33
2023-04-15T23:14:40.747Z,100409.30
2023-04-15T23:19:42.577Z,100408.89
2023-04-15T23:24:44.400Z,100410.23
2023-04-15T23:29:46.271Z,100411.27
2023-04-15T23:34:48.049Z,100409.59
2023-04-15T23:39:49.824Z,100410.69
2023-04-15T23:44:51.720Z,100410.63
2023-04-15T23:49:53.316Z,100408.44
2023-04-15T23:54:55.274Z,100409.38
2023-04-15T23:59:56.923Z,100408.38
